Time,TemperatureF,DewpointF,PressureIn,WindDirection,WindDirectionDegrees,WindSpeedMPH,WindSpeedGustMPH,Humidity,HourlyPrecipIn,Conditions,Clouds,dailyrainin,SoftwareType,DateUTC
2013-03-05 00:00:00,27.2,22.7,29.99,ESE,113,2.5,7.2,83,0.00,,,0.00,WUHU216HW,2013-03-05 06:00:00,
2013-03-05 00:05:00,27.0,22.5,29.99,ENE,68,6.3,7.2,83,0.00,,,0.00,WUHU216HW,2013-03-05 06:05:00,
2013-03-05 00:10:00,27.2,22.7,29.98,ENE,68,7.4,7.4,83,0.00,,,0.00,WUHU216HW,2013-03-05 06:10:00,
2013-03-05 00:15:00,27.2,22.7,29.98,ENE,68,5.1,8.5,83,0.00,,,0.00,WUHU216HW,2013-03-05 06:15:00,
2013-03-05 00:20:00,27.2,23.0,29.98,East,90,6.0,8.5,84,0.00,,,0.00,WUHU216HW,2013-03-05 06:20:00,
2013-03-05 00:25:00,27.2,23.0,29.98,NNE,23,5.8,8.1,84,0.00,,,0.00,WUHU216HW,2013-03-05 06:25:00,
2013-03-05 00:30:00,27.4,23.1,29.98,ESE,113,4.0,8.1,84,0.00,,,0.00,WUHU216HW,2013-03-05 06:30:00,
2013-03-05 00:35:00,27.4,23.1,29.98,ESE,113,6.3,6.3,84,0.00,,,0.00,WUHU216HW,2013-03-05 06:35:00,
2013-03-05 00:40:00,27.4,23.1,29.98,ENE,68,2.9,6.3,84,0.00,,,0.00,WUHU216HW,2013-03-05 06:40:00,
2013-03-05 00:45:00,27.4,23.1,29.98,ENE,68,2.5,6.3,84,0.00,,,0.00,WUHU216HW,2013-03-05 06:45:00,
2013-03-05 00:50:00,27.4,23.1,29.98,ESE,113,3.6,5.6,84,0.00,,,0.00,WUHU216HW,2013-03-05 06:50:00,
2013-03-05 00:55:00,27.4,23.1,29.98,East,90,6.9,6.9,84,0.00,,,0.00,WUHU216HW,2013-03-05 06:55:00,
2013-03-05 01:00:00,27.4,23.1,29.98,East,90,3.4,6.9,84,0.00,,,0.00,WUHU216HW,2013-03-05 07:00:00,
2013-03-05 01:05:00,27.4,23.1,29.98,ENE,68,3.4,6.9,84,0.00,,,0.00,WUHU216HW,2013-03-05 07:05:00,
2013-03-05 01:10:00,27.4,23.1,29.98,East,90,2.5,5.1,84,0.00,,,0.00,WUHU216HW,2013-03-05 07:10:00,
2013-03-05 01:15:00,27.5,23.3,29.98,ENE,68,4.9,5.1,84,0.00,,,0.00,WUHU216HW,2013-03-05 07:15:00,
2013-03-05 01:20:00,27.5,23.3,29.98,ENE,68,2.5,6.7,84,0.00,,,0.00,WUHU216HW,2013-03-05 07:20:00,
2013-03-05 01:25:00,27.5,23.3,29.97,ENE,68,3.1,6.7,84,0.00,,,0.00,WUHU216HW,2013-03-05 07:25:00,
2013-03-05 01:30:00,27.7,23.5,29.97,NE,45,2.2,6.5,84,0.00,,,0.00,WUHU216HW,2013-03-05 07:30:00,
2013-03-05 01:35:00,27.7,23.5,29.97,ENE,68,3.6,8.1,84,0.00,,,0.00,WUHU216HW,2013-03-05 07:35:00,
2013-03-05 01:40:00,27.7,23.5,29.97,East,90,3.4,8.1,84,0.00,,,0.00,WUHU216HW,2013-03-05 07:40:00,
2013-03-05 01:45:00,27.7,23.5,29.97,NE,45,3.6,5.8,84,0.00,,,0.00,WUHU216HW,2013-03-05 07:45:00,
2013-03-05 01:50:00,27.7,23.5,29.96,East,90,3.8,6.0,84,0.00,,,0.00,WUHU216HW,2013-03-05 07:50:00,
2013-03-05 01:55:00,27.7,23.5,29.96,ESE,113,5.6,6.0,84,0.00,,,0.00,WUHU216HW,2013-03-05 07:55:00,
2013-03-05 02:00:00,27.7,23.5,29.96,East,90,2.2,5.6,84,0.00,,,0.00,WUHU216HW,2013-03-05 08:00:00,
2013-03-05 02:05:00,27.7,23.5,29.95,ESE,113,3.6,5.6,84,0.00,,,0.00,WUHU216HW,2013-03-05 08:05:00,
2013-03-05 02:10:00,27.7,23.5,29.95,ESE,113,2.7,5.6,84,0.00,,,0.00,WUHU216HW,2013-03-05 08:10:00,
2013-03-05 02:15:00,27.9,23.7,29.95,NNE,23,2.9,6.0,84,0.00,,,0.00,WUHU216HW,2013-03-05 08:15:00,
2013-03-05 02:20:00,27.9,23.7,29.94,East,90,2.0,6.0,84,0.00,,,0.00,WUHU216HW,2013-03-05 08:20:00,
2013-03-05 02:25:00,27.9,23.7,29.94,ENE,68,3.4,5.8,84,0.00,,,0.00,WUHU216HW,2013-03-05 08:25:00,
2013-03-05 02:30:00,28.1,23.9,29.94,ENE,68,5.1,5.8,84,0.00,,,0.00,WUHU216HW,2013-03-05 08:30:00,
2013-03-05 02:35:00,28.1,23.9,29.94,NE,45,2.9,5.1,84,0.00,,,0.00,WUHU216HW,2013-03-05 08:35:00,
2013-03-05 02:40:00,28.1,23.9,29.94,ESE,113,5.4,5.4,84,0.00,,,0.00,WUHU216HW,2013-03-05 08:40:00,
2013-03-05 02:45:00,28.3,24.0,29.94,ESE,113,5.4,6.3,84,0.00,,,0.00,WUHU216HW,2013-03-05 08:45:00,
2013-03-05 02:50:00,28.3,24.0,29.93,ESE,113,4.0,6.5,84,0.00,,,0.00,WUHU216HW,2013-03-05 08:50:00,
2013-03-05 02:55:00,28.3,24.0,29.93,ENE,68,3.4,6.5,84,0.00,,,0.00,WUHU216HW,2013-03-05 08:55:00,
2013-03-05 03:00:00,28.4,24.2,29.93,East,90,4.0,7.2,84,0.00,,,0.00,WUHU216HW,2013-03-05 09:00:00,
2013-03-05 03:05:00,28.4,24.2,29.93,ENE,68,4.9,7.2,84,0.00,,,0.00,WUHU216HW,2013-03-05 09:05:00,
2013-03-05 03:10:00,28.4,24.2,29.92,ENE,68,4.5,7.6,84,0.00,,,0.00,WUHU216HW,2013-03-05 09:10:00,
2013-03-05 03:15:00,28.4,24.2,29.92,East,90,4.0,7.6,84,0.00,,,0.00,WUHU216HW,2013-03-05 09:15:00,
2013-03-05 03:20:00,28.6,24.4,29.91,ENE,68,3.6,10.5,84,0.00,,,0.00,WUHU216HW,2013-03-05 09:20:00,
2013-03-05 03:25:00,28.6,24.4,29.91,ESE,113,3.8,10.5,84,0.00,,,0.00,WUHU216HW,2013-03-05 09:25:00,
2013-03-05 03:30:00,28.6,24.4,29.91,NE,45,4.7,8.1,84,0.00,,,0.00,WUHU216HW,2013-03-05 09:30:00,
2013-03-05 03:35:00,28.4,24.2,29.91,ESE,113,3.4,6.7,84,0.00,,,0.00,WUHU216HW,2013-03-05 09:35:00,
2013-03-05 03:40:00,28.4,24.2,29.91,SE,135,2.9,5.1,84,0.00,,,0.00,WUHU216HW,2013-03-05 09:40:00,
2013-03-05 03:45:00,28.4,24.2,29.91,East,90,4.0,4.7,84,0.00,,,0.00,WUHU216HW,2013-03-05 09:45:00,
2013-03-05 03:50:00,28.4,24.5,29.91,ESE,113,2.7,4.0,85,0.00,,,0.00,WUHU216HW,2013-03-05 09:50:00,
2013-03-05 03:55:00,28.3,24.3,29.91,ENE,68,3.6,4.9,85,0.00,,,0.00,WUHU216HW,2013-03-05 09:55:00,
2013-03-05 04:00:00,28.3,24.3,29.91,ENE,68,4.5,5.1,85,0.00,,,0.00,WUHU216HW,2013-03-05 10:00:00,
2013-03-05 04:05:00,28.1,24.1,29.92,ENE,68,3.4,5.6,85,0.00,,,0.00,WUHU216HW,2013-03-05 10:05:00,
2013-03-05 04:10:00,28.1,24.1,29.91,ESE,113,3.4,6.3,85,0.00,,,0.00,WUHU216HW,2013-03-05 10:10:00,
2013-03-05 04:15:00,28.1,24.1,29.91,ESE,113,3.1,6.3,85,0.00,,,0.00,WUHU216HW,2013-03-05 10:15:00,
2013-03-05 04:20:00,28.1,24.1,29.91,East,90,5.4,6.0,85,0.00,,,0.00,WUHU216HW,2013-03-05 10:20:00,
2013-03-05 04:25:00,28.1,24.1,29.91,NE,45,4.5,6.3,85,0.00,,,0.00,WUHU216HW,2013-03-05 10:25:00,
2013-03-05 04:30:00,27.9,23.9,29.91,NE,45,4.5,6.3,85,0.00,,,0.00,WUHU216HW,2013-03-05 10:30:00,
2013-03-05 04:35:00,27.9,23.9,29.91,NNE,23,7.2,7.2,85,0.00,,,0.00,WUHU216HW,2013-03-05 10:35:00,
2013-03-05 04:40:00,27.9,23.9,29.91,NE,45,6.0,7.4,85,0.00,,,0.00,WUHU216HW,2013-03-05 10:40:00,
2013-03-05 04:45:00,27.9,23.9,29.91,ENE,68,6.9,8.5,85,0.00,,,0.00,WUHU216HW,2013-03-05 10:45:00,
2013-03-05 04:50:00,27.9,23.9,29.91,NE,45,4.7,8.5,85,0.00,,,0.00,WUHU216HW,2013-03-05 10:50:00,
2013-03-05 04:55:00,27.9,23.9,29.91,ENE,68,1.6,7.6,85,0.00,,,0.00,WUHU216HW,2013-03-05 10:55:00,
2013-03-05 05:00:00,27.9,23.9,29.91,East,90,4.7,7.6,85,0.00,,,0.00,WUHU216HW,2013-03-05 11:00:00,
2013-03-05 05:05:00,27.9,23.9,29.90,ENE,68,3.1,6.5,85,0.00,,,0.00,WUHU216HW,2013-03-05 11:05:00,
2013-03-05 05:10:00,27.9,23.9,29.90,East,90,3.1,6.3,85,0.00,,,0.00,WUHU216HW,2013-03-05 11:10:00,
2013-03-05 05:15:00,27.9,23.9,29.91,ESE,113,1.6,5.6,85,0.00,,,0.00,WUHU216HW,2013-03-05 11:15:00,
2013-03-05 05:20:00,27.9,23.9,29.91,NE,45,2.2,6.0,85,0.00,,,0.00,WUHU216HW,2013-03-05 11:20:00,
2013-03-05 05:25:00,28.1,24.1,29.90,ESE,113,4.9,6.0,85,0.00,,,0.00,WUHU216HW,2013-03-05 11:25:00,
2013-03-05 05:30:00,28.1,23.9,29.90,NE,45,3.6,4.9,84,0.00,,,0.00,WUHU216HW,2013-03-05 11:30:00,
2013-03-05 05:35:00,28.1,24.1,29.90,ESE,113,2.7,5.6,85,0.00,,,0.00,WUHU216HW,2013-03-05 11:35:00,
2013-03-05 05:40:00,28.1,23.9,29.89,ENE,68,3.8,5.6,84,0.00,,,0.00,WUHU216HW,2013-03-05 11:40:00,
2013-03-05 05:45:00,28.1,23.9,29.90,East,90,4.0,6.3,84,0.00,,,0.00,WUHU216HW,2013-03-05 11:45:00,
2013-03-05 05:50:00,28.1,23.9,29.89,NE,45,3.4,6.3,84,0.00,,,0.00,WUHU216HW,2013-03-05 11:50:00,
2013-03-05 05:55:00,28.1,23.9,29.89,East,90,4.0,6.0,84,0.00,,,0.00,WUHU216HW,2013-03-05 11:55:00,
2013-03-05 06:00:00,28.1,24.1,29.89,NE,45,4.0,6.0,85,0.00,,,0.00,WUHU216HW,2013-03-05 12:00:00,
2013-03-05 06:05:00,28.1,24.1,29.89,SE,135,2.2,5.4,85,0.00,,,0.00,WUHU216HW,2013-03-05 12:05:00,
2013-03-05 06:10:00,28.3,24.6,29.89,NE,45,1.8,4.7,86,0.00,,,0.00,WUHU216HW,2013-03-05 12:10:00,
2013-03-05 06:15:00,28.3,24.3,29.89,East,90,1.8,3.6,85,0.00,,,0.00,WUHU216HW,2013-03-05 12:15:00,
2013-03-05 06:20:00,28.3,24.6,29.89,NE,45,1.3,4.0,86,0.00,,,0.00,WUHU216HW,2013-03-05 12:20:00,
2013-03-05 06:25:00,28.3,24.6,29.89,NE,45,4.7,4.9,86,0.00,,,0.00,WUHU216HW,2013-03-05 12:25:00,
2013-03-05 06:30:00,28.4,24.8,29.89,ENE,68,2.2,4.9,86,0.00,,,0.00,WUHU216HW,2013-03-05 12:30:00,
2013-03-05 06:35:00,28.4,24.8,29.90,ESE,113,2.2,4.7,86,0.00,,,0.00,WUHU216HW,2013-03-05 12:35:00,
2013-03-05 06:40:00,28.4,24.8,29.90,NE,45,2.7,4.3,86,0.00,,,0.00,WUHU216HW,2013-03-05 12:40:00,
2013-03-05 06:45:00,28.4,24.8,29.90,ENE,68,1.3,4.7,86,0.00,,,0.00,WUHU216HW,2013-03-05 12:45:00,
2013-03-05 06:50:00,28.4,24.8,29.90,NE,45,3.1,4.7,86,0.00,,,0.00,WUHU216HW,2013-03-05 12:50:00,
2013-03-05 06:55:00,28.4,24.8,29.90,NE,45,4.7,4.7,86,0.00,,,0.00,WUHU216HW,2013-03-05 12:55:00,
2013-03-05 07:00:00,28.4,25.0,29.90,NNE,23,2.0,4.7,87,0.00,,,0.00,WUHU216HW,2013-03-05 13:00:00,
2013-03-05 07:05:00,28.4,24.8,29.91,East,90,1.8,4.7,86,0.00,,,0.00,WUHU216HW,2013-03-05 13:05:00,
2013-03-05 07:10:00,28.4,24.8,29.91,East,90,2.5,3.4,86,0.00,,,0.00,WUHU216HW,2013-03-05 13:10:00,
2013-03-05 07:15:00,28.4,25.0,29.91,ENE,68,2.5,4.7,87,0.00,,,0.00,WUHU216HW,2013-03-05 13:15:00,
2013-03-05 07:20:00,28.3,24.8,29.91,ENE,68,2.2,4.7,87,0.00,,,0.00,WUHU216HW,2013-03-05 13:20:00,
2013-03-05 07:25:00,28.4,25.0,29.91,ENE,68,3.4,4.0,87,0.00,,,0.00,WUHU216HW,2013-03-05 13:25:00,
2013-03-05 07:30:00,28.3,24.8,29.91,NE,45,2.5,4.3,87,0.00,,,0.00,WUHU216HW,2013-03-05 13:30:00,
2013-03-05 07:35:00,28.1,25.0,29.91,NNE,23,5.4,6.3,88,0.00,,,0.00,WUHU216HW,2013-03-05 13:35:00,
2013-03-05 07:40:00,28.1,25.0,29.91,NE,45,1.8,6.3,88,0.00,,,0.00,WUHU216HW,2013-03-05 13:40:00,
2013-03-05 07:45:00,28.1,25.3,29.91,ENE,68,1.6,5.4,89,0.00,,,0.00,WUHU216HW,2013-03-05 13:45:00,
2013-03-05 07:50:00,27.9,25.1,29.91,NE,45,2.2,5.4,89,0.00,,,0.00,WUHU216HW,2013-03-05 13:50:00,
2013-03-05 07:55:00,27.7,24.9,29.91,NE,45,3.6,4.7,89,0.00,,,0.00,WUHU216HW,2013-03-05 13:55:00,
2013-03-05 08:00:00,27.9,25.4,29.91,NE,45,1.6,4.7,90,0.00,,,0.00,WUHU216HW,2013-03-05 14:00:00,
2013-03-05 08:05:00,27.9,25.4,29.91,NE,45,3.6,4.7,90,0.00,,,0.00,WUHU216HW,2013-03-05 14:05:00,
2013-03-05 08:10:00,28.1,25.6,29.91,East,90,1.8,6.3,90,0.00,,,0.00,WUHU216HW,2013-03-05 14:10:00,
2013-03-05 08:15:00,28.1,25.6,29.91,ENE,68,3.6,6.3,90,0.00,,,0.00,WUHU216HW,2013-03-05 14:15:00,
2013-03-05 08:20:00,28.1,25.6,29.91,NE,45,4.3,4.3,90,0.00,,,0.00,WUHU216HW,2013-03-05 14:20:00,
2013-03-05 08:25:00,28.3,25.7,29.91,NE,45,2.7,4.7,90,0.00,,,0.00,WUHU216HW,2013-03-05 14:25:00,
2013-03-05 08:30:00,28.4,25.7,29.91,NE,45,2.2,4.7,89,0.00,,,0.00,WUHU216HW,2013-03-05 14:30:00,
2013-03-05 08:35:00,28.6,25.8,29.91,NE,45,3.4,4.3,89,0.00,,,0.00,WUHU216HW,2013-03-05 14:35:00,
2013-03-05 08:40:00,28.8,26.0,29.91,North,0,4.0,4.7,89,0.00,,,0.00,WUHU216HW,2013-03-05 14:40:00,
2013-03-05 08:45:00,28.8,25.8,29.91,NE,45,3.4,5.6,88,0.00,,,0.00,WUHU216HW,2013-03-05 14:45:00,
2013-03-05 08:50:00,28.8,25.8,29.91,NE,45,4.0,6.0,88,0.00,,,0.00,WUHU216HW,2013-03-05 14:50:00,
2013-03-05 08:55:00,29.0,25.9,29.91,ENE,68,3.4,6.0,88,0.00,,,0.00,WUHU216HW,2013-03-05 14:55:00,
2013-03-05 09:00:00,29.2,26.1,29.90,ENE,68,3.6,6.0,88,0.00,,,0.00,WUHU216HW,2013-03-05 15:00:00,
2013-03-05 09:05:00,29.2,26.1,29.90,North,0,3.4,6.0,88,0.00,,,0.00,WUHU216HW,2013-03-05 15:05:00,
2013-03-05 09:10:00,29.2,25.7,29.90,NNE,23,4.0,5.8,87,0.00,,,0.00,WUHU216HW,2013-03-05 15:10:00,
2013-03-05 09:15:00,29.0,25.6,29.90,NNE,23,4.0,6.0,87,0.00,,,0.00,WUHU216HW,2013-03-05 15:15:00,
2013-03-05 09:20:00,29.2,26.1,29.90,NNE,23,4.3,6.0,88,0.00,,,0.00,WUHU216HW,2013-03-05 15:20:00,
2013-03-05 09:25:00,29.3,25.9,29.90,NE,45,4.5,5.8,87,0.00,,,0.00,WUHU216HW,2013-03-05 15:25:00,
2013-03-05 09:30:00,29.5,25.8,29.90,NNE,23,4.9,6.3,86,0.00,,,0.00,WUHU216HW,2013-03-05 15:30:00,
2013-03-05 09:35:00,29.3,25.7,29.90,NNE,23,4.9,6.3,86,0.00,,,0.00,WUHU216HW,2013-03-05 15:35:00,
2013-03-05 09:40:00,29.5,25.8,29.90,NNE,23,4.0,6.0,86,0.00,,,0.00,WUHU216HW,2013-03-05 15:40:00,
2013-03-05 09:45:00,29.5,26.1,29.89,NNE,23,5.6,6.3,87,0.00,,,0.00,WUHU216HW,2013-03-05 15:45:00,
2013-03-05 09:50:00,29.9,26.2,29.89,NNE,23,4.3,6.7,86,0.00,,,0.00,WUHU216HW,2013-03-05 15:50:00,
2013-03-05 09:55:00,30.2,26.6,29.89,NNE,23,6.0,7.6,86,0.00,,,0.00,WUHU216HW,2013-03-05 15:55:00,
2013-03-05 10:00:00,30.2,26.6,29.89,ENE,68,4.7,8.3,86,0.00,,,0.00,WUHU216HW,2013-03-05 16:00:00,
2013-03-05 10:05:00,30.1,26.4,29.89,NE,45,6.9,10.1,86,0.00,,,0.00,WUHU216HW,2013-03-05 16:05:00,
2013-03-05 10:10:00,30.1,26.4,29.89,SE,135,4.7,10.3,86,0.00,,,0.00,WUHU216HW,2013-03-05 16:10:00,
2013-03-05 10:15:00,30.1,26.6,29.89,East,90,4.0,10.5,87,0.00,,,0.00,WUHU216HW,2013-03-05 16:15:00,
2013-03-05 10:20:00,30.4,26.7,29.89,ENE,68,4.0,10.5,86,0.00,,,0.00,WUHU216HW,2013-03-05 16:20:00,
2013-03-05 10:25:00,30.2,26.6,29.89,NE,45,7.8,8.7,86,0.00,,,0.00,WUHU216HW,2013-03-05 16:25:00,
2013-03-05 10:30:00,29.9,25.9,29.89,NE,45,8.7,8.7,85,0.00,,,0.00,WUHU216HW,2013-03-05 16:30:00,
2013-03-05 10:35:00,29.9,26.2,29.88,ENE,68,5.4,9.2,86,0.00,,,0.00,WUHU216HW,2013-03-05 16:35:00,
2013-03-05 10:40:00,29.7,26.0,29.88,ENE,68,6.9,9.4,86,0.00,,,0.00,WUHU216HW,2013-03-05 16:40:00,
2013-03-05 10:45:00,29.5,25.8,29.88,NNE,23,9.2,10.1,86,0.00,,,0.00,WUHU216HW,2013-03-05 16:45:00,
2013-03-05 10:50:00,29.7,26.0,29.88,NE,45,2.7,10.1,86,0.00,,,0.00,WUHU216HW,2013-03-05 16:50:00,
2013-03-05 10:55:00,29.7,26.0,29.88,ESE,113,4.5,10.7,86,0.00,,,0.00,WUHU216HW,2013-03-05 16:55:00,
2013-03-05 11:00:00,29.7,26.0,29.87,ENE,68,6.7,10.7,86,0.00,,,0.00,WUHU216HW,2013-03-05 17:00:00,
2013-03-05 11:05:00,29.7,26.0,29.87,ENE,68,5.8,11.4,86,0.00,,,0.00,WUHU216HW,2013-03-05 17:05:00,
2013-03-05 11:10:00,29.5,25.8,29.87,ENE,68,6.3,14.5,86,0.00,,,0.00,WUHU216HW,2013-03-05 17:10:00,
2013-03-05 11:15:00,29.5,25.8,29.86,NE,45,8.9,14.5,86,0.00,,,0.00,WUHU216HW,2013-03-05 17:15:00,
2013-03-05 11:21:00,29.5,25.8,29.86,East,90,10.1,11.4,86,0.00,,,0.00,WUHU216HW,2013-03-05 17:21:00,
2013-03-05 11:25:00,29.9,26.2,29.86,ENE,68,6.9,11.4,86,0.00,,,0.00,WUHU216HW,2013-03-05 17:25:00,
2013-03-05 11:31:00,30.1,26.1,29.86,NE,45,7.2,11.4,85,0.00,,,0.00,WUHU216HW,2013-03-05 17:31:00,
2013-03-05 11:35:00,29.9,25.9,29.86,NNE,23,6.7,11.2,85,0.00,,,0.00,WUHU216HW,2013-03-05 17:35:00,
2013-03-05 11:41:00,29.7,26.0,29.86,ENE,68,6.7,11.2,86,0.00,,,0.00,WUHU216HW,2013-03-05 17:41:00,
2013-03-05 11:46:00,29.9,26.2,29.86,NE,45,6.7,10.7,86,0.00,,,0.00,WUHU216HW,2013-03-05 17:46:00,
2013-03-05 11:51:00,29.9,26.2,29.86,NNE,23,4.7,10.1,86,0.00,,,0.00,WUHU216HW,2013-03-05 17:51:00,
2013-03-05 11:56:00,30.1,26.1,29.86,ENE,68,4.0,10.5,85,0.00,,,0.00,WUHU216HW,2013-03-05 17:56:00,
2013-03-05 12:01:00,30.4,26.5,29.86,ENE,68,5.1,10.5,85,0.00,,,0.00,WUHU216HW,2013-03-05 18:01:00,
2013-03-05 12:06:00,30.6,26.6,29.86,NE,45,3.1,8.5,85,0.00,,,0.00,WUHU216HW,2013-03-05 18:06:00,
2013-03-05 12:11:00,30.6,26.6,29.86,ENE,68,5.4,8.9,85,0.00,,,0.00,WUHU216HW,2013-03-05 18:11:00,
2013-03-05 12:16:00,30.2,26.6,29.86,North,0,5.6,9.8,86,0.00,,,0.00,WUHU216HW,2013-03-05 18:16:00,
2013-03-05 12:21:00,30.2,26.3,29.86,NE,45,3.4,9.8,85,0.00,,,0.00,WUHU216HW,2013-03-05 18:21:00,
2013-03-05 12:26:00,30.2,26.3,29.86,NNE,23,8.3,10.5,85,0.00,,,0.00,WUHU216HW,2013-03-05 18:26:00,
2013-03-05 12:31:00,30.2,26.3,29.86,SSE,158,4.9,10.5,85,0.00,,,0.00,WUHU216HW,2013-03-05 18:31:00,
2013-03-05 12:35:00,30.4,26.2,29.86,NE,45,6.0,8.9,84,0.00,,,0.00,WUHU216HW,2013-03-05 18:35:00,
2013-03-05 12:40:00,30.1,26.1,29.86,NE,45,5.4,9.4,85,0.00,,,0.00,WUHU216HW,2013-03-05 18:40:00,
2013-03-05 12:45:00,30.4,26.5,29.86,East,90,7.2,9.4,85,0.00,,,0.00,WUHU216HW,2013-03-05 18:45:00,
2013-03-05 12:50:00,30.4,26.5,29.85,ENE,68,4.7,9.8,85,0.00,,,0.00,WUHU216HW,2013-03-05 18:50:00,
2013-03-05 12:55:00,30.6,26.4,29.86,NE,45,5.8,9.8,84,0.01,,,0.01,WUHU216HW,2013-03-05 18:55:00,
2013-03-05 13:00:00,30.8,26.6,29.86,NE,45,4.0,7.8,84,0.01,,,0.01,WUHU216HW,2013-03-05 19:00:00,
2013-03-05 13:05:00,30.6,26.1,29.86,NE,45,7.4,9.2,83,0.01,,,0.01,WUHU216HW,2013-03-05 19:05:00,
2013-03-05 13:10:00,30.6,26.4,29.86,NE,45,4.7,9.2,84,0.01,,,0.01,WUHU216HW,2013-03-05 19:10:00,
2013-03-05 13:15:00,30.6,26.4,29.85,NNE,23,8.5,9.2,84,0.01,,,0.01,WUHU216HW,2013-03-05 19:15:00,
2013-03-05 13:20:00,30.2,26.0,29.86,NE,45,6.5,9.8,84,0.01,,,0.01,WUHU216HW,2013-03-05 19:20:00,
2013-03-05 13:25:00,30.4,26.5,29.86,SE,135,3.1,11.0,85,0.01,,,0.01,WUHU216HW,2013-03-05 19:25:00,
2013-03-05 13:30:00,30.4,26.2,29.86,NNE,23,4.7,11.0,84,0.02,,,0.02,WUHU216HW,2013-03-05 19:30:00,
2013-03-05 13:35:00,29.9,25.7,29.86,NE,45,12.1,12.1,84,0.02,,,0.02,WUHU216HW,2013-03-05 19:35:00,
2013-03-05 13:40:00,29.9,25.7,29.86,NE,45,11.0,12.1,84,0.02,,,0.02,WUHU216HW,2013-03-05 19:40:00,
2013-03-05 13:45:00,30.1,26.1,29.86,NE,45,5.6,12.1,85,0.02,,,0.02,WUHU216HW,2013-03-05 19:45:00,
2013-03-05 13:51:00,30.2,26.0,29.86,NE,45,9.6,11.4,84,0.02,,,0.02,WUHU216HW,2013-03-05 19:51:00,
2013-03-05 13:56:00,30.1,26.1,29.86,ENE,68,5.4,9.6,85,0.01,,,0.02,WUHU216HW,2013-03-05 19:56:00,
2013-03-05 14:01:00,29.9,25.9,29.86,ENE,68,8.5,9.6,85,0.01,,,0.02,WUHU216HW,2013-03-05 20:01:00,
2013-03-05 14:06:00,29.9,26.2,29.86,NNE,23,6.3,8.7,86,0.01,,,0.02,WUHU216HW,2013-03-05 20:06:00,
2013-03-05 14:11:00,29.5,25.8,29.86,North,0,6.9,8.7,86,0.01,,,0.02,WUHU216HW,2013-03-05 20:11:00,
2013-03-05 14:16:00,29.5,25.8,29.86,NNE,23,7.8,10.1,86,0.02,,,0.03,WUHU216HW,2013-03-05 20:16:00,
2013-03-05 14:21:00,29.3,25.7,29.87,NNE,23,8.5,11.9,86,0.02,,,0.03,WUHU216HW,2013-03-05 20:21:00,
2013-03-05 14:26:00,29.2,25.5,29.87,NNE,23,7.6,11.9,86,0.02,,,0.03,WUHU216HW,2013-03-05 20:26:00,
2013-03-05 14:31:00,29.2,25.5,29.87,NNE,23,7.8,9.8,86,0.01,,,0.03,WUHU216HW,2013-03-05 20:31:00,
2013-03-05 14:36:00,28.8,25.4,29.87,North,0,10.5,12.3,87,0.01,,,0.03,WUHU216HW,2013-03-05 20:36:00,
2013-03-05 14:41:00,28.4,25.0,29.87,NE,45,11.6,13.2,87,0.01,,,0.03,WUHU216HW,2013-03-05 20:41:00,
2013-03-05 14:46:00,28.4,25.0,29.87,NE,45,10.7,13.2,87,0.01,,,0.03,WUHU216HW,2013-03-05 20:46:00,
2013-03-05 14:51:00,28.8,25.4,29.88,North,0,7.8,11.2,87,0.01,,,0.03,WUHU216HW,2013-03-05 20:51:00,
2013-03-05 14:56:00,29.2,25.7,29.88,NNE,23,7.8,13.6,87,0.01,,,0.03,WUHU216HW,2013-03-05 20:56:00,
2013-03-05 15:01:00,29.5,25.8,29.88,ENE,68,7.8,13.6,86,0.01,,,0.03,WUHU216HW,2013-03-05 21:01:00,
2013-03-05 15:06:00,29.3,25.7,29.88,NNE,23,9.2,9.4,86,0.02,,,0.04,WUHU216HW,2013-03-05 21:06:00,
2013-03-05 15:11:00,29.0,25.3,29.88,NE,45,9.8,10.3,86,0.01,,,0.04,WUHU216HW,2013-03-05 21:11:00,
2013-03-05 15:16:00,29.0,25.3,29.88,NNE,23,6.5,11.2,86,0.01,,,0.04,WUHU216HW,2013-03-05 21:16:00,
2013-03-05 15:21:00,28.6,24.7,29.89,NNE,23,11.4,11.6,85,0.01,,,0.04,WUHU216HW,2013-03-05 21:21:00,
2013-03-05 15:26:00,28.3,24.6,29.89,NNE,23,9.4,13.9,86,0.01,,,0.04,WUHU216HW,2013-03-05 21:26:00,
2013-03-05 15:31:00,28.1,24.1,29.89,North,0,7.2,13.9,85,0.01,,,0.04,WUHU216HW,2013-03-05 21:31:00,
2013-03-05 15:36:00,28.1,24.1,29.89,NE,45,6.9,12.8,85,0.01,,,0.04,WUHU216HW,2013-03-05 21:36:00,
2013-03-05 15:41:00,28.1,24.1,29.90,NNE,23,12.8,12.8,85,0.01,,,0.04,WUHU216HW,2013-03-05 21:41:00,
2013-03-05 15:46:00,27.9,24.2,29.90,NNE,23,6.5,12.8,86,0.01,,,0.04,WUHU216HW,2013-03-05 21:46:00,
2013-03-05 15:51:00,28.1,24.4,29.90,NE,45,8.9,12.8,86,0.01,,,0.04,WUHU216HW,2013-03-05 21:51:00,
2013-03-05 15:56:00,28.1,24.7,29.90,NNE,23,8.1,11.9,87,0.01,,,0.04,WUHU216HW,2013-03-05 21:56:00,
2013-03-05 16:01:00,27.9,24.9,29.91,NNE,23,5.8,11.2,88,0.00,,,0.04,WUHU216HW,2013-03-05 22:01:00,
2013-03-05 16:06:00,27.9,24.9,29.91,North,0,8.9,11.2,88,0.00,,,0.04,WUHU216HW,2013-03-05 22:06:00,
2013-03-05 16:11:00,28.1,25.0,29.91,NNE,23,9.6,12.1,88,0.00,,,0.04,WUHU216HW,2013-03-05 22:11:00,
2013-03-05 16:16:00,28.1,25.0,29.91,NE,45,6.9,12.1,88,0.00,,,0.04,WUHU216HW,2013-03-05 22:16:00,
2013-03-05 16:21:00,27.9,24.9,29.91,North,0,5.8,11.4,88,0.00,,,0.04,WUHU216HW,2013-03-05 22:21:00,
2013-03-05 16:26:00,27.9,24.9,29.91,NNE,23,7.6,11.0,88,0.00,,,0.04,WUHU216HW,2013-03-05 22:26:00,
2013-03-05 16:31:00,27.9,24.9,29.92,NE,45,5.8,10.1,88,0.00,,,0.04,WUHU216HW,2013-03-05 22:31:00,
2013-03-05 16:36:00,27.7,24.7,29.92,North,0,8.1,12.8,88,0.00,,,0.04,WUHU216HW,2013-03-05 22:36:00,
2013-03-05 16:41:00,27.5,24.5,29.92,NNE,23,12.1,14.3,88,0.00,,,0.04,WUHU216HW,2013-03-05 22:41:00,
2013-03-05 16:46:00,27.5,24.8,29.93,NNE,23,6.3,15.0,89,0.00,,,0.04,WUHU216HW,2013-03-05 22:46:00,
2013-03-05 16:51:00,27.4,24.8,29.93,North,0,7.4,15.0,90,0.00,,,0.04,WUHU216HW,2013-03-05 22:51:00,
2013-03-05 16:56:00,27.2,24.7,29.93,NE,45,8.5,12.1,90,0.00,,,0.04,WUHU216HW,2013-03-05 22:56:00,
2013-03-05 17:01:00,27.0,24.8,29.93,North,0,9.6,12.1,91,0.00,,,0.04,WUHU216HW,2013-03-05 23:01:00,
2013-03-05 17:06:00,26.6,24.4,29.93,North,0,13.4,15.2,91,0.00,,,0.04,WUHU216HW,2013-03-05 23:06:00,
2013-03-05 17:11:00,26.5,24.2,29.94,North,0,11.2,15.2,91,0.00,,,0.04,WUHU216HW,2013-03-05 23:11:00,
2013-03-05 17:16:00,26.6,24.4,29.94,North,0,10.1,12.5,91,0.00,,,0.04,WUHU216HW,2013-03-05 23:16:00,
2013-03-05 17:21:00,26.5,24.2,29.94,North,0,8.3,14.1,91,0.00,,,0.04,WUHU216HW,2013-03-05 23:21:00,
2013-03-05 17:26:00,26.5,24.2,29.94,North,0,10.5,14.1,91,0.00,,,0.04,WUHU216HW,2013-03-05 23:26:00,
2013-03-05 17:31:00,26.6,24.4,29.95,North,0,11.0,15.0,91,0.00,,,0.04,WUHU216HW,2013-03-05 23:31:00,
2013-03-05 17:36:00,26.5,24.2,29.95,North,0,8.3,15.0,91,0.00,,,0.04,WUHU216HW,2013-03-05 23:36:00,
2013-03-05 17:41:00,26.5,24.2,29.95,NNE,23,9.8,13.0,91,0.00,,,0.04,WUHU216HW,2013-03-05 23:41:00,
2013-03-05 17:46:00,26.5,24.2,29.96,North,0,7.2,12.8,91,0.00,,,0.04,WUHU216HW,2013-03-05 23:46:00,
2013-03-05 17:51:00,26.3,24.0,29.96,North,0,7.4,12.8,91,0.00,,,0.04,WUHU216HW,2013-03-05 23:51:00,
2013-03-05 17:56:00,26.3,24.0,29.96,North,0,11.2,13.0,91,0.00,,,0.04,WUHU216HW,2013-03-05 23:56:00,
2013-03-05 18:01:00,26.3,24.0,29.96,North,0,9.6,13.0,91,0.00,,,0.04,WUHU216HW,2013-03-06 00:01:00,
2013-03-05 18:06:00,26.3,24.0,29.96,NNE,23,10.3,12.8,91,0.00,,,0.04,WUHU216HW,2013-03-06 00:06:00,
2013-03-05 18:11:00,26.3,24.0,29.97,NNE,23,8.1,14.3,91,0.00,,,0.04,WUHU216HW,2013-03-06 00:11:00,
2013-03-05 18:16:00,26.3,24.0,29.97,North,0,11.2,14.3,91,0.00,,,0.04,WUHU216HW,2013-03-06 00:16:00,
2013-03-05 18:21:00,26.1,23.9,29.97,North,0,10.1,12.8,91,0.00,,,0.04,WUHU216HW,2013-03-06 00:21:00,
2013-03-05 18:26:00,26.3,24.0,29.98,North,0,6.3,14.3,91,0.00,,,0.04,WUHU216HW,2013-03-06 00:26:00,
2013-03-05 18:31:00,26.3,24.0,29.98,North,0,10.3,14.3,91,0.00,,,0.04,WUHU216HW,2013-03-06 00:31:00,
2013-03-05 18:36:00,26.3,24.0,29.98,North,0,10.3,13.4,91,0.00,,,0.04,WUHU216HW,2013-03-06 00:36:00,
2013-03-05 18:41:00,26.3,24.0,29.98,North,0,11.2,13.4,91,0.00,,,0.04,WUHU216HW,2013-03-06 00:41:00,
2013-03-05 18:46:00,26.3,24.0,29.98,North,0,11.2,14.3,91,0.00,,,0.04,WUHU216HW,2013-03-06 00:46:00,
2013-03-05 18:51:00,26.3,24.0,29.98,North,0,10.7,14.3,91,0.00,,,0.04,WUHU216HW,2013-03-06 00:51:00,
2013-03-05 18:56:00,26.3,24.0,29.99,North,0,9.4,13.9,91,0.00,,,0.04,WUHU216HW,2013-03-06 00:56:00,
2013-03-05 19:01:00,26.3,24.0,29.98,North,0,8.5,13.9,91,0.00,,,0.04,WUHU216HW,2013-03-06 01:01:00,
2013-03-05 19:06:00,26.3,24.0,29.99,North,0,11.2,12.1,91,0.00,,,0.04,WUHU216HW,2013-03-06 01:06:00,
2013-03-05 19:11:00,26.5,23.9,29.99,North,0,11.2,13.9,90,0.00,,,0.04,WUHU216HW,2013-03-06 01:11:00,
2013-03-05 19:16:00,26.5,23.9,29.99,NNE,23,13.4,15.2,90,0.00,,,0.04,WUHU216HW,2013-03-06 01:16:00,
2013-03-05 19:21:00,26.5,23.7,29.99,NNE,23,14.3,15.2,89,0.00,,,0.04,WUHU216HW,2013-03-06 01:21:00,
2013-03-05 19:26:00,26.6,23.9,29.99,North,0,12.5,17.0,89,0.00,,,0.04,WUHU216HW,2013-03-06 01:26:00,
2013-03-05 19:31:00,26.5,23.7,29.99,North,0,11.9,17.0,89,0.00,,,0.04,WUHU216HW,2013-03-06 01:31:00,
2013-03-05 19:36:00,26.5,23.9,29.99,NNE,23,8.5,14.1,90,0.00,,,0.04,WUHU216HW,2013-03-06 01:36:00,
2013-03-05 19:41:00,26.5,23.7,30.00,North,0,12.5,14.1,89,0.00,,,0.04,WUHU216HW,2013-03-06 01:41:00,
2013-03-05 19:46:00,26.3,23.5,30.00,North,0,9.8,13.0,89,0.00,,,0.04,WUHU216HW,2013-03-06 01:46:00,
2013-03-05 19:51:00,26.3,23.8,30.00,NNE,23,7.6,12.5,90,0.00,,,0.04,WUHU216HW,2013-03-06 01:51:00,
2013-03-05 19:56:00,26.3,23.5,30.00,North,0,10.3,12.8,89,0.00,,,0.04,WUHU216HW,2013-03-06 01:56:00,
2013-03-05 20:01:00,26.3,23.5,30.00,North,0,8.5,12.8,89,0.00,,,0.04,WUHU216HW,2013-03-06 02:01:00,
2013-03-05 20:06:00,26.3,23.5,30.01,NNE,23,6.0,12.1,89,0.00,,,0.04,WUHU216HW,2013-03-06 02:06:00,
2013-03-05 20:11:00,26.1,23.3,30.01,North,0,7.6,11.0,89,0.00,,,0.04,WUHU216HW,2013-03-06 02:11:00,
2013-03-05 20:16:00,25.9,23.1,30.01,North,0,7.6,11.9,89,0.00,,,0.04,WUHU216HW,2013-03-06 02:16:00,
2013-03-05 20:21:00,25.9,23.1,30.01,North,0,8.3,11.9,89,0.00,,,0.04,WUHU216HW,2013-03-06 02:21:00,
2013-03-05 20:26:00,25.9,23.1,30.01,North,0,4.9,11.0,89,0.00,,,0.04,WUHU216HW,2013-03-06 02:26:00,
2013-03-05 20:31:00,25.7,22.7,30.01,North,0,6.9,10.5,88,0.00,,,0.04,WUHU216HW,2013-03-06 02:31:00,
2013-03-05 20:36:00,25.6,22.5,30.01,NNE,23,10.1,12.1,88,0.00,,,0.04,WUHU216HW,2013-03-06 02:36:00,
2013-03-05 20:41:00,25.6,22.5,30.01,North,0,11.0,12.5,88,0.00,,,0.04,WUHU216HW,2013-03-06 02:41:00,
2013-03-05 20:46:00,25.6,22.2,30.01,NNW,338,7.2,12.5,87,0.00,,,0.04,WUHU216HW,2013-03-06 02:46:00,
2013-03-05 20:51:00,25.6,22.2,30.02,North,0,8.5,12.5,87,0.00,,,0.04,WUHU216HW,2013-03-06 02:51:00,
2013-03-05 20:56:00,25.6,22.2,30.02,NNW,338,5.1,10.7,87,0.00,,,0.04,WUHU216HW,2013-03-06 02:56:00,
2013-03-05 21:01:00,25.6,22.2,30.02,NNW,338,6.5,10.7,87,0.00,,,0.04,WUHU216HW,2013-03-06 03:01:00,
2013-03-05 21:06:00,25.6,22.2,30.02,NNW,338,5.6,8.7,87,0.00,,,0.04,WUHU216HW,2013-03-06 03:06:00,
2013-03-05 21:11:00,25.6,22.2,30.02,NNW,338,8.3,8.9,87,0.00,,,0.04,WUHU216HW,2013-03-06 03:11:00,
2013-03-05 21:16:00,25.6,22.2,30.02,North,0,7.2,8.9,87,0.00,,,0.04,WUHU216HW,2013-03-06 03:16:00,
2013-03-05 21:21:00,25.6,22.2,30.02,NNW,338,4.5,8.3,87,0.00,,,0.04,WUHU216HW,2013-03-06 03:21:00,
2013-03-05 21:26:00,25.6,22.2,30.03,North,0,7.6,8.1,87,0.00,,,0.04,WUHU216HW,2013-03-06 03:26:00,
2013-03-05 21:31:00,25.6,22.2,30.03,NW,315,4.3,7.6,87,0.00,,,0.04,WUHU216HW,2013-03-06 03:31:00,
2013-03-05 21:36:00,25.6,22.2,30.03,NNE,23,4.9,7.6,87,0.00,,,0.04,WUHU216HW,2013-03-06 03:36:00,
2013-03-05 21:41:00,25.6,22.2,30.03,NNW,338,4.7,7.6,87,0.00,,,0.04,WUHU216HW,2013-03-06 03:41:00,
2013-03-05 21:46:00,25.4,22.1,30.04,North,0,3.6,7.6,87,0.00,,,0.04,WUHU216HW,2013-03-06 03:46:00,
2013-03-05 21:51:00,25.2,21.9,30.04,NNW,338,4.9,6.0,87,0.00,,,0.04,WUHU216HW,2013-03-06 03:51:00,
2013-03-05 21:56:00,25.2,21.9,30.04,NW,315,6.0,6.3,87,0.00,,,0.04,WUHU216HW,2013-03-06 03:56:00,
2013-03-05 22:01:00,25.0,21.7,30.04,NNW,338,5.4,7.6,87,0.00,,,0.04,WUHU216HW,2013-03-06 04:01:00,
2013-03-05 22:06:00,25.0,21.7,30.04,NW,315,5.8,7.6,87,0.00,,,0.04,WUHU216HW,2013-03-06 04:06:00,
2013-03-05 22:11:00,24.8,21.5,30.04,NNW,338,5.4,7.2,87,0.00,,,0.04,WUHU216HW,2013-03-06 04:11:00,
2013-03-05 22:16:00,24.8,21.5,30.04,NW,315,6.9,7.2,87,0.00,,,0.04,WUHU216HW,2013-03-06 04:16:00,
2013-03-05 22:21:00,24.7,21.3,30.04,NW,315,6.3,7.8,87,0.00,,,0.04,WUHU216HW,2013-03-06 04:21:00,
2013-03-05 22:26:00,24.5,21.2,30.04,NW,315,7.6,7.8,87,0.00,,,0.04,WUHU216HW,2013-03-06 04:26:00,
2013-03-05 22:31:00,24.5,21.4,30.05,North,0,7.6,8.5,88,0.00,,,0.04,WUHU216HW,2013-03-06 04:31:00,
2013-03-05 22:36:00,24.7,21.3,30.05,NW,315,6.9,8.5,87,0.00,,,0.04,WUHU216HW,2013-03-06 04:36:00,
2013-03-05 22:41:00,24.8,21.8,30.05,NW,315,8.1,10.1,88,0.00,,,0.04,WUHU216HW,2013-03-06 04:41:00,
2013-03-05 22:46:00,24.8,21.8,30.05,NNW,338,7.8,10.1,88,0.00,,,0.04,WUHU216HW,2013-03-06 04:46:00,
2013-03-05 22:51:00,25.0,22.0,30.05,NW,315,8.3,9.8,88,0.00,,,0.04,WUHU216HW,2013-03-06 04:51:00,
2013-03-05 22:56:00,25.0,22.0,30.05,NNW,338,9.2,9.2,88,0.00,,,0.04,WUHU216HW,2013-03-06 04:56:00,
2013-03-05 23:00:00,25.2,22.2,30.05,NW,315,8.3,9.8,88,0.00,,,0.04,WUHU216HW,2013-03-06 05:00:00,
2013-03-05 23:05:00,25.2,22.2,30.06,NW,315,7.6,10.1,88,0.00,,,0.04,WUHU216HW,2013-03-06 05:05:00,
2013-03-05 23:10:00,25.4,22.3,30.06,NW,315,8.7,10.1,88,0.00,,,0.04,WUHU216HW,2013-03-06 05:10:00,
2013-03-05 23:15:00,25.6,22.5,30.06,NNW,338,7.6,9.6,88,0.00,,,0.04,WUHU216HW,2013-03-06 05:15:00,
2013-03-05 23:20:00,25.6,22.5,30.06,NNW,338,7.2,10.7,88,0.00,,,0.04,WUHU216HW,2013-03-06 05:20:00,
2013-03-05 23:25:00,25.6,22.2,30.06,NNW,338,8.5,10.7,87,0.00,,,0.04,WUHU216HW,2013-03-06 05:25:00,
2013-03-05 23:30:00,25.7,22.4,30.06,NNW,338,8.3,9.8,87,0.00,,,0.04,WUHU216HW,2013-03-06 05:30:00,
2013-03-05 23:35:00,25.9,22.6,30.06,NW,315,8.5,9.8,87,0.00,,,0.04,WUHU216HW,2013-03-06 05:35:00,
2013-03-05 23:40:00,25.9,22.3,30.06,North,0,8.7,10.5,86,0.00,,,0.04,WUHU216HW,2013-03-06 05:40:00,
2013-03-05 23:45:00,25.9,22.3,30.06,NW,315,8.7,10.5,86,0.00,,,0.04,WUHU216HW,2013-03-06 05:45:00,
2013-03-05 23:50:00,25.9,22.3,30.06,NNW,338,6.5,9.2,86,0.00,,,0.04,WUHU216HW,2013-03-06 05:50:00,
2013-03-05 23:55:00,25.9,22.0,30.07,NNW,338,8.3,10.1,85,0.00,,,0.04,WUHU216HW,2013-03-06 05:55:00,